Time;durP1;ratioP1;P1;durP2;ratioP2;P2;SDS_P1;SDS_P2;PMS_P1;PMS_P2;Temp;Humidity;BMP_temperature;BMP_pressure;BME280_temperature;BME280_humidity;BME280_pressure;Samples;Min_cycle;Max_cycle;Signal;HPM_P1;HPM_P2
2021/08/05 00:01:22;;;;;;;4.18;3.78;;;17.60;87.10;;;;;;5066209;28;20025;-56
2021/08/05 00:03:48;;;;;;;3.58;2.92;;;17.60;86.90;;;;;;5067474;28;20089;-57
2021/08/05 00:06:13;;;;;;;4.30;2.72;;;17.60;87.10;;;;;;5067047;28;20024;-57
2021/08/05 00:08:39;;;;;;;3.00;2.70;;;17.50;87.70;;;;;;5067282;28;20428;-57
2021/08/05 00:11:05;;;;;;;4.90;3.25;;;17.40;88.10;;;;;;5069763;28;20028;-57
2021/08/05 00:13:30;;;;;;;3.00;2.70;;;17.30;88.10;;;;;;5069328;28;20580;-57
2021/08/05 00:15:56;;;;;;;3.92;3.58;;;17.30;88.20;;;;;;5066920;28;20056;-57
2021/08/05 00:18:22;;;;;;;6.22;3.85;;;17.30;88.10;;;;;;5067332;28;20056;-57
2021/08/05 00:20:48;;;;;;;4.25;3.20;;;17.40;88.10;;;;;;5065612;28;20028;-56
2021/08/05 00:23:14;;;;;;;5.10;3.05;;;17.30;88.10;;;;;;5069328;28;20036;-57
2021/08/05 00:25:39;;;;;;;3.08;2.78;;;17.40;88.40;;;;;;5065402;28;20032;-58
2021/08/05 00:28:05;;;;;;;2.85;2.63;;;17.30;88.50;;;;;;5069140;28;20396;-57
2021/08/05 00:30:31;;;;;;;2.90;2.70;;;17.30;88.70;;;;;;5065864;28;20021;-57
2021/08/05 00:32:56;;;;;;;3.72;2.90;;;17.20;88.90;;;;;;5069238;28;20039;-57
2021/08/05 00:35:22;;;;;;;3.67;3.22;;;17.20;89.20;;;;;;5066612;28;20028;-57
2021/08/05 00:37:47;;;;;;;4.40;3.42;;;17.10;89.50;;;;;;5069846;28;20067;-56
2021/08/05 00:40:13;;;;;;;3.30;3.00;;;17.10;89.70;;;;;;5067475;28;20067;-55
2021/08/05 00:42:39;;;;;;;5.90;3.30;;;17.10;89.60;;;;;;5068975;28;20032;-56
2021/08/05 00:45:05;;;;;;;8.68;3.78;;;17.10;89.70;;;;;;5066131;28;20447;-57
2021/08/05 00:47:30;;;;;;;3.63;3.33;;;17.00;89.90;;;;;;5068892;28;20016;-56
2021/08/05 00:49:56;;;;;;;4.68;3.35;;;17.00;89.80;;;;;;5069754;28;20032;-55
2021/08/05 00:52:22;;;;;;;5.40;3.28;;;17.00;89.80;;;;;;5065278;28;20020;-56
2021/08/05 00:54:48;;;;;;;3.92;3.45;;;17.00;89.80;;;;;;5066743;28;20037;-56
2021/08/05 00:57:14;;;;;;;3.00;2.72;;;17.00;90.10;;;;;;5067057;28;20040;-56
2021/08/05 00:59:39;;;;;;;4.15;3.20;;;16.90;90.20;;;;;;5068508;28;20481;-56
2021/08/05 01:02:12;;;;;;;3.80;3.50;;;16.90;90.30;;;;;;5067014;28;20029;-57
2021/08/05 01:04:39;;;;;;;6.72;2.67;;;16.80;90.30;;;;;;5065264;28;20489;-55
2021/08/05 01:07:10;;;;;;;3.83;3.10;;;16.90;90.20;;;;;;5068461;28;20043;-57
2021/08/05 01:10:04;;;;;;;4.47;3.65;;;16.90;90.20;;;;;;5068382;28;20077;-56
2021/08/05 01:12:49;;;;;;;3.53;3.20;;;16.80;90.40;;;;;;5067803;28;20043;-55
2021/08/05 01:15:26;;;;;;;7.15;3.10;;;16.70;90.70;;;;;;5065998;28;20489;-56
2021/08/05 01:17:59;;;;;;;3.83;3.20;;;16.60;90.90;;;;;;5068070;28;20112;-56
2021/08/05 01:20:27;;;;;;;6.35;3.88;;;16.50;90.90;;;;;;5067490;28;20032;-56
2021/08/05 01:23:01;;;;;;;8.13;3.72;;;16.50;91.00;;;;;;5068120;28;20050;-56
2021/08/05 01:25:57;;;;;;;5.45;3.72;;;16.50;91.00;;;;;;5066405;28;20028;-57
2021/08/05 01:28:23;;;;;;;4.47;3.45;;;16.50;91.10;;;;;;5064496;28;20085;-57
2021/08/05 01:30:50;;;;;;;6.88;3.78;;;16.50;91.10;;;;;;5065600;28;20025;-55
2021/08/05 01:33:18;;;;;;;7.38;4.00;;;16.50;91.10;;;;;;5067330;28;20028;-56
2021/08/05 01:35:44;;;;;;;4.32;3.92;;;16.60;91.10;;;;;;5066910;28;20017;-56
2021/08/05 01:38:14;;;;;;;6.25;3.58;;;16.60;91.10;;;;;;5065865;28;20527;-57
2021/08/05 01:40:40;;;;;;;3.25;2.95;;;16.60;90.90;;;;;;5066483;28;20073;-56
2021/08/05 01:43:06;;;;;;;3.72;3.42;;;16.50;91.10;;;;;;5066611;28;20116;-57
2021/08/05 01:45:33;;;;;;;3.83;3.47;;;16.40;91.20;;;;;;5064336;28;20114;-56
2021/08/05 01:48:00;;;;;;;7.63;3.65;;;16.30;91.40;;;;;;5066038;28;20037;-57
2021/08/05 01:50:26;;;;;;;5.28;4.03;;;16.30;91.50;;;;;;5063616;28;20023;-56
2021/08/05 01:52:52;;;;;;;4.70;4.13;;;16.30;91.60;;;;;;5067550;28;20028;-56
2021/08/05 01:55:18;;;;;;;4.03;3.72;;;16.40;91.60;;;;;;5065245;28;20025;-56
2021/08/05 01:57:44;;;;;;;4.72;4.25;;;16.40;91.50;;;;;;5067532;28;20090;-55
2021/08/05 02:00:10;;;;;;;4.55;4.15;;;16.50;91.30;;;;;;5065335;28;20081;-56
2021/08/05 02:02:37;;;;;;;19.95;14.93;;;16.40;91.30;;;;;;5067530;28;20481;-56
2021/08/05 02:05:02;;;;;;;8.77;6.65;;;16.40;91.30;;;;;;5065138;28;20463;-56
2021/08/05 02:07:48;;;;;;;25.67;19.20;;;16.40;91.40;;;;;;5067323;28;20120;-56
2021/08/05 02:10:26;;;;;;;26.92;21.77;;;16.40;91.30;;;;;;5065802;28;20034;-55
2021/08/05 02:13:06;;;;;;;10.35;6.90;;;16.50;91.30;;;;;;5066193;28;20024;-54
2021/08/05 02:15:35;;;;;;;18.92;12.57;;;16.60;91.40;;;;;;5064140;28;20477;-54
2021/08/05 02:18:02;;;;;;;4.93;4.05;;;16.60;91.40;;;;;;5066206;28;20484;-57
2021/08/05 02:20:27;;;;;;;8.98;8.07;;;16.60;91.40;;;;;;5082145;28;20481;-56
2021/08/05 02:22:53;;;;;;;11.88;9.32;;;16.70;91.30;;;;;;5066475;28;20074;-56
2021/08/05 02:25:19;;;;;;;12.40;9.48;;;16.70;91.20;;;;;;5064733;28;20082;-56
2021/08/05 02:27:45;;;;;;;7.25;6.50;;;16.70;91.20;;;;;;5067007;28;20020;-56
2021/08/05 02:30:12;;;;;;;6.30;5.35;;;16.60;91.20;;;;;;5065203;28;20103;-56
2021/08/05 02:32:39;;;;;;;12.15;9.02;;;16.60;91.10;;;;;;5067108;28;20481;-55
2021/08/05 02:35:08;;;;;;;12.50;7.95;;;16.50;91.10;;;;;;5063900;28;20024;-56
2021/08/05 02:37:34;;;;;;;12.52;7.05;;;16.50;91.10;;;;;;5066699;28;20120;-56
2021/08/05 02:40:00;;;;;;;5.85;5.22;;;16.50;91.00;;;;;;5065704;28;20462;-56
2021/08/05 02:42:26;;;;;;;12.73;4.90;;;16.50;91.00;;;;;;5066067;28;20119;-56
2021/08/05 02:44:52;;;;;;;6.30;4.70;;;16.40;91.40;;;;;;5065051;28;20103;-56
2021/08/05 02:47:18;;;;;;;5.28;4.53;;;16.40;91.40;;;;;;5064952;28;20413;-56
2021/08/05 02:49:45;;;;;;;6.63;5.93;;;16.40;91.40;;;;;;5065159;28;20024;-56
2021/08/05 02:52:11;;;;;;;9.05;6.30;;;16.50;91.20;;;;;;5062348;28;20020;-56
2021/08/05 02:54:37;;;;;;;7.57;6.53;;;16.40;91.00;;;;;;5064972;28;20029;-57
2021/08/05 02:57:03;;;;;;;7.30;5.72;;;16.40;91.10;;;;;;5065695;28;20508;-53
2021/08/05 02:59:29;;;;;;;6.63;5.72;;;16.40;91.20;;;;;;5064291;28;20048;-56
2021/08/05 03:01:54;;;;;;;9.57;6.40;;;16.40;91.20;;;;;;5064033;28;20102;-55
2021/08/05 03:04:20;;;;;;;9.32;6.20;;;16.40;91.20;;;;;;5065036;28;20516;-56
2021/08/05 03:06:46;;;;;;;5.03;4.63;;;16.40;91.00;;;;;;5066825;28;20052;-55
2021/08/05 03:09:13;;;;;;;4.28;3.92;;;16.30;91.00;;;;;;5065128;28;20170;-56
2021/08/05 03:11:39;;;;;;;7.75;5.88;;;16.10;91.30;;;;;;5066820;28;20081;-56
2021/08/05 03:14:05;;;;;;;8.38;4.30;;;16.00;91.70;;;;;;5063823;28;20505;-56
2021/08/05 03:16:31;;;;;;;6.45;5.70;;;16.00;91.70;;;;;;5065839;28;20095;-57
2021/08/05 03:18:56;;;;;;;5.88;4.20;;;15.90;91.70;;;;;;5062760;28;20162;-57
2021/08/05 03:21:22;;;;;;;8.10;4.18;;;15.80;91.70;;;;;;5066419;28;20416;-55
2021/08/05 03:23:48;;;;;;;7.65;3.95;;;15.70;92.10;;;;;;5065624;28;20111;-57
2021/08/05 03:26:13;;;;;;;4.80;4.43;;;15.60;92.60;;;;;;5081335;28;20024;-54
2021/08/05 03:28:39;;;;;;;5.10;4.57;;;15.60;92.60;;;;;;5066617;28;20033;-57
2021/08/05 03:31:04;;;;;;;6.15;5.28;;;15.60;92.80;;;;;;5064797;28;20078;-56
2021/08/05 03:33:30;;;;;;;6.55;5.18;;;15.60;92.80;;;;;;5065820;28;20020;-56
2021/08/05 03:35:56;;;;;;;6.93;5.68;;;15.60;92.50;;;;;;5064669;28;20502;-56
2021/08/05 03:38:22;;;;;;;7.45;5.88;;;15.60;92.70;;;;;;5063266;28;20050;-56
2021/08/05 03:40:47;;;;;;;6.78;4.88;;;15.60;92.70;;;;;;5065544;28;20032;-54
2021/08/05 03:43:13;;;;;;;7.50;5.00;;;15.60;92.70;;;;;;5065518;28;20029;-57
2021/08/05 03:45:38;;;;;;;14.07;5.85;;;15.70;92.50;;;;;;5064792;28;20032;-56
2021/08/05 03:48:04;;;;;;;9.00;5.88;;;15.60;92.70;;;;;;5061910;28;20513;-57
2021/08/05 03:50:30;;;;;;;6.40;5.50;;;15.70;92.80;;;;;;5062616;28;20024;-56
2021/08/05 03:52:55;;;;;;;4.65;4.25;;;15.70;92.80;;;;;;5063215;28;20377;-57
2021/08/05 03:55:21;;;;;;;5.00;4.50;;;15.70;92.70;;;;;;5060464;28;20496;-56
2021/08/05 03:57:46;;;;;;;9.07;5.50;;;15.60;93.10;;;;;;5065147;28;20401;-57
2021/08/05 04:00:15;;;;;;;6.68;5.10;;;15.50;93.10;;;;;;5063366;28;20036;-56
2021/08/05 04:02:41;;;;;;;6.97;5.63;;;15.60;93.30;;;;;;5065036;28;20036;-57
2021/08/05 04:05:07;;;;;;;7.20;5.00;;;15.50;93.30;;;;;;5063342;28;20506;-56
2021/08/05 04:07:33;;;;;;;6.43;5.53;;;15.50;93.30;;;;;;5081464;22;20053;-75
2021/08/05 04:09:59;;;;;;;5.47;4.97;;;15.50;93.30;;;;;;5037424;28;20029;-76
2021/08/05 04:12:25;;;;;;;5.35;4.43;;;15.50;93.60;;;;;;5055324;28;20356;-76
2021/08/05 04:14:50;;;;;;;7.53;5.00;;;15.50;93.70;;;;;;5037116;28;20035;-75
2021/08/05 04:17:16;;;;;;;6.60;5.13;;;15.50;93.70;;;;;;5038181;28;20488;-75
2021/08/05 04:19:41;;;;;;;8.13;5.55;;;15.50;93.60;;;;;;5034922;28;20078;-76
2021/08/05 04:22:07;;;;;;;10.25;6.97;;;15.40;93.70;;;;;;5036046;28;20034;-75
2021/08/05 04:24:32;;;;;;;;;;;15.40;93.80;;;;;;5037964;28;20550;-75
2021/08/05 04:26:58;;;;;;;6.47;5.60;;;15.50;93.60;;;;;;5052034;28;20035;-76
2021/08/05 04:29:23;;;;;;;5.55;4.97;;;15.60;93.60;;;;;;5029112;28;20083;-75
2021/08/05 04:31:49;;;;;;;;;;;15.60;93.50;;;;;;5026176;28;20051;-75
2021/08/05 04:34:14;;;;;;;12.13;5.97;;;15.70;93.60;;;;;;5025513;28;20414;-75
2021/08/05 04:36:40;;;;;;;18.63;13.48;;;15.80;93.70;;;;;;5040326;28;20071;-75
2021/08/05 04:39:05;;;;;;;19.65;12.57;;;15.90;93.50;;;;;;5040575;28;20048;-75
2021/08/05 04:41:32;;;;;;;6.20;5.60;;;16.00;93.40;;;;;;5042491;28;20028;-75
2021/08/05 04:43:58;;;;;;;11.43;8.00;;;16.10;93.20;;;;;;5037690;28;20029;-76
2021/08/05 04:46:24;;;;;;;13.52;11.80;;;16.00;93.10;;;;;;5040933;28;20036;-75
2021/08/05 04:48:49;;;;;;;8.45;6.25;;;16.00;93.20;;;;;;5038506;28;20037;-75
2021/08/05 04:51:17;;;;;;;24.70;17.92;;;16.10;93.00;;;;;;5041931;28;20456;-74
2021/08/05 04:53:43;;;;;;;17.50;10.80;;;16.00;93.00;;;;;;5040519;28;20064;-75
2021/08/05 04:56:09;;;;;;;11.30;8.70;;;16.10;93.00;;;;;;5039325;28;20452;-75
2021/08/05 04:58:34;;;;;;;10.43;8.40;;;16.20;93.00;;;;;;5042116;28;20527;-75
2021/08/05 05:01:08;;;;;;;14.55;8.65;;;16.30;92.90;;;;;;5040213;28;20133;-77
2021/08/05 05:03:35;;;;;;;10.82;8.48;;;16.40;92.60;;;;;;5022065;28;20041;-76
2021/08/05 05:06:14;;;;;;;31.58;22.40;;;16.40;92.60;;;;;;5038780;28;20052;-76
2021/08/05 05:09:01;;;;;;;8.68;5.20;;;16.40;92.50;;;;;;5042360;28;20033;-76
2021/08/05 05:11:27;;;;;;;17.95;13.73;;;16.50;92.80;;;;;;5042012;28;20070;-77
2021/08/05 05:13:52;;;;;;;14.30;10.48;;;16.50;92.60;;;;;;5038996;28;20037;-76
2021/08/05 05:16:18;;;;;;;23.00;16.00;;;16.60;92.50;;;;;;5040969;28;20439;-76
2021/08/05 05:18:43;;;;;;;14.85;11.88;;;16.70;92.30;;;;;;5022515;28;20115;-77
2021/08/05 05:21:09;;;;;;;10.32;6.57;;;16.70;92.20;;;;;;5039669;28;20036;-77
2021/08/05 05:23:35;;;;;;;12.40;9.63;;;16.70;92.00;;;;;;5040403;28;20029;-76
2021/08/05 05:26:01;;;;;;;7.18;5.50;;;16.70;92.00;;;;;;5022267;28;20397;-77
2021/08/05 05:28:27;;;;;;;5.63;4.90;;;16.70;92.00;;;;;;5038192;28;20100;-76
2021/08/05 05:30:53;;;;;;;10.88;7.35;;;16.60;91.90;;;;;;5035158;28;20021;-75
2021/08/05 05:33:18;;;;;;;7.82;5.03;;;16.50;92.10;;;;;;5032807;28;20120;-75
2021/08/05 05:35:44;;;;;;;7.82;6.30;;;16.60;92.10;;;;;;5035345;28;20096;-75
2021/08/05 05:38:11;;;;;;;5.93;5.32;;;16.50;92.30;;;;;;5037670;28;20052;-76
2021/08/05 05:40:37;;;;;;;6.72;4.63;;;16.50;92.30;;;;;;5036588;28;20041;-76
2021/08/05 05:43:04;;;;;;;7.20;5.28;;;16.50;92.20;;;;;;5037578;28;20025;-76
2021/08/05 05:45:31;;;;;;;8.30;5.35;;;16.50;92.30;;;;;;5036004;28;20518;-76
2021/08/05 05:47:57;;;;;;;6.15;4.68;;;16.60;92.20;;;;;;5037958;28;20056;-76
2021/08/05 05:50:23;;;;;;;5.10;4.60;;;16.50;92.30;;;;;;5040381;28;20066;-76
2021/08/05 05:52:49;;;;;;;6.03;4.68;;;16.50;92.30;;;;;;5040696;28;20055;-76
2021/08/05 05:55:15;;;;;;;6.18;5.40;;;16.60;92.30;;;;;;5038689;28;20029;-76
2021/08/05 05:57:41;;;;;;;5.30;4.50;;;16.60;92.30;;;;;;5040920;28;20408;-76
2021/08/05 06:00:07;;;;;;;5.88;5.18;;;16.60;92.40;;;;;;5040027;28;20045;-76
2021/08/05 06:02:33;;;;;;;6.05;5.10;;;16.60;92.40;;;;;;5039799;28;20427;-75
2021/08/05 06:04:58;;;;;;;7.10;5.47;;;16.70;92.30;;;;;;5039540;28;20120;-75
2021/08/05 06:07:24;;;;;;;6.07;5.35;;;16.80;92.30;;;;;;5040421;28;20033;-75
2021/08/05 06:09:49;;;;;;;4.85;4.45;;;17.00;92.20;;;;;;5040131;28;20392;-76
2021/08/05 06:12:15;;;;;;;10.05;5.30;;;17.00;92.10;;;;;;5040308;28;20100;-76
2021/08/05 06:14:41;;;;;;;7.03;4.47;;;17.00;92.00;;;;;;5038828;28;20114;-76
2021/08/05 06:17:07;;;;;;;7.32;5.65;;;17.10;91.90;;;;;;5038818;28;20029;-76
2021/08/05 06:19:33;;;;;;;6.72;4.97;;;17.20;91.90;;;;;;5040141;28;20036;-75
2021/08/05 06:21:58;;;;;;;5.75;5.20;;;17.20;91.80;;;;;;5039925;28;20036;-76
2021/08/05 06:24:25;;;;;;;9.35;6.68;;;17.20;91.80;;;;;;5039306;28;20024;-76
2021/08/05 06:26:51;;;;;;;7.93;5.88;;;17.30;91.70;;;;;;5021941;28;20472;-76
2021/08/05 06:29:18;;;;;;;5.68;4.97;;;17.40;91.70;;;;;;5039650;28;20393;-76
2021/08/05 06:31:43;;;;;;;8.02;5.03;;;17.40;91.60;;;;;;5039420;28;20021;-76
2021/08/05 06:34:09;;;;;;;5.20;4.30;;;17.50;91.60;;;;;;5038927;28;20511;-76
2021/08/05 06:36:35;;;;;;;9.75;4.53;;;17.60;91.50;;;;;;5040022;28;20404;-76
2021/08/05 06:39:03;;;;;;;10.82;5.50;;;17.80;91.40;;;;;;5039915;28;20033;-76
2021/08/05 06:41:29;;;;;;;7.03;5.00;;;17.90;91.20;;;;;;5038469;28;20064;-76
2021/08/05 06:43:54;;;;;;;5.20;4.63;;;18.10;91.10;;;;;;5039151;28;20104;-76
2021/08/05 06:46:20;;;;;;;4.35;3.92;;;18.10;90.90;;;;;;5039062;28;20048;-76
2021/08/05 06:48:45;;;;;;;5.95;5.40;;;18.10;90.70;;;;;;5038851;28;20115;-76
2021/08/05 06:51:11;;;;;;;5.93;5.05;;;18.00;90.70;;;;;;5039465;28;20021;-76
2021/08/05 06:53:37;;;;;;;7.20;5.68;;;17.90;90.80;;;;;;5039541;28;20029;-76
2021/08/05 06:56:03;;;;;;;6.55;5.30;;;17.90;90.90;;;;;;5032798;28;20009;-75
2021/08/05 06:58:30;;;;;;;7.57;5.00;;;17.90;90.80;;;;;;5033435;28;20373;-75
2021/08/05 07:00:55;;;;;;;6.05;4.97;;;18.10;90.80;;;;;;5020752;28;20029;-75
2021/08/05 07:03:21;;;;;;;9.98;5.50;;;18.20;90.60;;;;;;5039655;28;20021;-75
2021/08/05 07:05:46;;;;;;;6.35;5.00;;;18.30;90.50;;;;;;5037933;28;20515;-75
2021/08/05 07:08:12;;;;;;;8.20;4.93;;;18.40;90.40;;;;;;5038884;28;20045;-75
2021/08/05 07:10:38;;;;;;;11.90;5.38;;;18.40;90.30;;;;;;5036139;28;20033;-75
2021/08/05 07:13:05;;;;;;;6.13;5.53;;;18.50;90.30;;;;;;5032156;28;20103;-75
2021/08/05 07:15:31;;;;;;;8.23;4.90;;;18.50;90.20;;;;;;5038063;28;20496;-75
2021/08/05 07:17:57;;;;;;;6.35;5.18;;;18.50;90.10;;;;;;5036467;28;20060;-75
2021/08/05 07:20:22;;;;;;;7.85;5.85;;;18.50;90.10;;;;;;5037080;28;20122;-75
2021/08/05 07:22:48;;;;;;;7.15;5.97;;;18.60;90.10;;;;;;5038507;28;20035;-75
2021/08/05 07:25:15;;;;;;;10.30;5.55;;;18.60;90.10;;;;;;5037326;28;20033;-75
2021/08/05 07:27:42;;;;;;;9.57;5.50;;;18.70;90.00;;;;;;5038472;28;20021;-75
2021/08/05 07:30:09;;;;;;;7.95;6.20;;;18.70;90.00;;;;;;5036083;28;20105;-75
2021/08/05 07:32:35;;;;;;;7.63;5.22;;;18.80;90.00;;;;;;5036609;28;20108;-75
2021/08/05 07:35:01;;;;;;;8.63;6.10;;;18.80;89.90;;;;;;5038042;28;20107;-75
2021/08/05 07:37:27;;;;;;;10.45;5.50;;;18.90;89.90;;;;;;5037448;28;20600;-75
2021/08/05 07:39:52;;;;;;;5.60;4.97;;;18.90;89.70;;;;;;5034891;28;20032;-75
2021/08/05 07:42:19;;;;;;;11.52;6.97;;;19.00;89.50;;;;;;5037223;28;20064;-76
2021/08/05 07:44:45;;;;;;;7.35;6.15;;;19.10;89.30;;;;;;5036549;28;20017;-75
2021/08/05 07:47:11;;;;;;;8.13;5.47;;;19.10;89.40;;;;;;5037778;28;20025;-75
2021/08/05 07:49:36;;;;;;;7.50;5.90;;;19.20;89.30;;;;;;5037686;28;20120;-75
2021/08/05 07:52:02;;;;;;;9.20;6.55;;;19.40;89.00;;;;;;5035319;28;20104;-75
2021/08/05 07:54:28;;;;;;;11.55;7.13;;;19.50;88.70;;;;;;5033921;28;20083;-75
2021/08/05 07:56:54;;;;;;;9.27;7.10;;;19.50;88.50;;;;;;5053745;28;20021;-75
2021/08/05 07:59:19;;;;;;;68.60;15.05;;;19.70;88.40;;;;;;5036808;28;20065;-75
2021/08/05 08:01:45;;;;;;;15.13;7.78;;;19.90;88.00;;;;;;5037134;28;20056;-75
2021/08/05 08:04:10;;;;;;;10.02;6.80;;;20.00;87.40;;;;;;5034863;28;20037;-75
2021/08/05 08:06:36;;;;;;;14.13;7.80;;;20.00;86.90;;;;;;5036153;28;20045;-75
2021/08/05 08:09:03;;;;;;;9.05;6.38;;;20.00;86.70;;;;;;5041576;28;20091;-75
2021/08/05 08:11:30;;;;;;;15.77;6.80;;;20.00;86.80;;;;;;5041414;28;20025;-76
2021/08/05 08:13:56;;;;;;;8.65;6.30;;;20.10;86.80;;;;;;5043388;28;20022;-76
2021/08/05 08:16:22;;;;;;;8.60;7.78;;;20.10;86.60;;;;;;5039345;28;20037;-76
2021/08/05 08:18:49;;;;;;;7.90;7.10;;;20.20;86.60;;;;;;5036031;28;20037;-76
2021/08/05 08:21:15;;;;;;;6.15;5.65;;;20.20;86.20;;;;;;5042632;28;20028;-75
2021/08/05 08:23:41;;;;;;;8.48;5.18;;;20.20;86.00;;;;;;5041665;28;20025;-76
2021/08/05 08:26:07;;;;;;;8.30;7.07;;;20.20;86.20;;;;;;5023105;28;20029;-76
2021/08/05 08:28:33;;;;;;;7.93;7.18;;;20.30;86.20;;;;;;5039290;28;20029;-76
2021/08/05 08:30:58;;;;;;;6.93;5.78;;;20.30;85.50;;;;;;5040152;28;20385;-77
2021/08/05 08:33:24;;;;;;;9.48;6.47;;;20.20;85.50;;;;;;5034216;28;20056;-78
2021/08/05 08:35:50;;;;;;;7.65;6.00;;;20.20;85.80;;;;;;5038842;28;20034;-78
2021/08/05 08:38:15;;;;;;;6.97;5.60;;;20.30;85.70;;;;;;5041824;28;20116;-79
2021/08/05 08:40:41;;;;;;;6.82;5.82;;;20.40;85.70;;;;;;5035186;28;20043;-77
2021/08/05 08:43:06;;;;;;;7.55;6.53;;;20.60;85.50;;;;;;5040361;28;20043;-77
2021/08/05 08:45:32;;;;;;;8.30;6.13;;;20.70;85.20;;;;;;5042117;28;20053;-77
2021/08/05 08:47:59;;;;;;;6.88;5.50;;;20.80;85.10;;;;;;5041672;28;20061;-76
2021/08/05 08:50:28;;;;;;;6.82;6.10;;;20.90;84.80;;;;;;5037045;28;20078;-77
2021/08/05 08:53:05;;;;;;;7.00;5.35;;;21.00;84.50;;;;;;5041729;28;20025;-77
2021/08/05 08:55:33;;;;;;;4.97;3.90;;;21.10;84.20;;;;;;5040256;28;20129;-77
2021/08/05 08:58:04;;;;;;;5.57;4.35;;;21.20;84.70;;;;;;5040884;28;20090;-77
2021/08/05 09:00:30;;;;;;;5.82;5.25;;;21.30;84.60;;;;;;5038295;28;20033;-77
2021/08/05 09:03:00;;;;;;;7.78;5.30;;;21.60;84.30;;;;;;5039189;28;20540;-76
2021/08/05 09:05:27;;;;;;;7.20;5.05;;;21.60;82.90;;;;;;5037814;28;20579;-76
2021/08/05 09:07:54;;;;;;;12.35;5.78;;;21.60;82.80;;;;;;5042454;28;20443;-76
2021/08/05 09:10:19;;;;;;;6.22;5.60;;;21.70;82.70;;;;;;5038752;28;20044;-76
2021/08/05 09:12:46;;;;;;;7.68;5.95;;;21.80;82.60;;;;;;5037674;28;20021;-76
2021/08/05 09:15:13;;;;;;;5.60;5.07;;;21.90;82.70;;;;;;5036176;28;20053;-77
2021/08/05 09:17:43;;;;;;;9.40;4.78;;;22.00;82.00;;;;;;5037420;28;20029;-77
2021/08/05 09:20:11;;;;;;;8.68;6.03;;;22.00;80.90;;;;;;5038253;28;20029;-77
2021/08/05 09:22:39;;;;;;;5.05;4.57;;;22.00;81.20;;;;;;5039611;28;20047;-76
2021/08/05 09:25:24;;;;;;;4.72;4.32;;;22.00;80.40;;;;;;5039543;28;20412;-76
2021/08/05 09:27:52;;;;;;;5.40;4.82;;;22.00;81.10;;;;;;5039648;28;20040;-76
2021/08/05 09:30:41;;;;;;;5.05;4.57;;;22.00;81.40;;;;;;5041737;28;20036;-76
2021/08/05 09:33:15;;;;;;;5.65;4.35;;;22.00;81.20;;;;;;5040453;28;20017;-76
2021/08/05 09:35:43;;;;;;;4.93;4.45;;;22.00;81.20;;;;;;5042204;28;20026;-76
2021/08/05 09:38:22;;;;;;;4.75;4.35;;;22.00;81.20;;;;;;5036553;28;20492;-76
2021/08/05 09:40:51;;;;;;;11.85;5.05;;;22.00;81.20;;;;;;5035693;28;20056;-77
2021/08/05 09:43:23;;;;;;;10.80;4.20;;;21.90;80.70;;;;;;5036951;28;20041;-76
2021/08/05 09:45:49;;;;;;;12.20;5.07;;;21.90;81.00;;;;;;5041550;28;20076;-77
2021/08/05 09:48:57;;;;;;;7.45;4.30;;;22.00;81.00;;;;;;5039778;28;20472;-76
2021/08/05 09:51:23;;;;;;;5.88;4.45;;;22.10;80.90;;;;;;5036718;28;20051;-77
2021/08/05 09:53:53;;;;;;;5.88;5.00;;;22.30;80.70;;;;;;5032545;28;20033;-77
2021/08/05 09:56:19;;;;;;;6.60;4.55;;;22.30;80.20;;;;;;5038220;28;20021;-77
2021/08/05 09:58:44;;;;;;;4.97;4.57;;;22.20;80.40;;;;;;5035847;28;20037;-76
2021/08/05 10:01:10;;;;;;;5.80;3.80;;;22.10;79.20;;;;;;5039366;28;20025;-76
2021/08/05 10:03:39;;;;;;;4.47;3.72;;;21.90;79.50;;;;;;5037569;28;20033;-77
2021/08/05 10:06:07;;;;;;;4.47;4.05;;;21.80;80.10;;;;;;5060868;23;20009;-79
2021/08/05 10:08:41;;;;;;;8.10;4.35;;;21.80;80.20;;;;;;5062379;28;20410;-79
2021/08/05 10:11:12;;;;;;;3.95;3.40;;;21.60;79.70;;;;;;5067381;28;20553;-79
2021/08/05 10:14:03;;;;;;;14.13;9.27;;;21.50;79.70;;;;;;5059255;28;21156;-78
2021/08/05 10:16:38;;;;;;;20.33;14.30;;;21.30;80.00;;;;;;5054909;28;20029;-79
2021/08/05 10:19:04;;;;;;;13.30;10.02;;;21.10;80.10;;;;;;5056825;28;20100;-78
2021/08/05 10:21:31;;;;;;;16.70;8.55;;;21.10;79.90;;;;;;5042416;28;20060;-78
2021/08/05 10:23:57;;;;;;;5.50;4.43;;;21.10;80.20;;;;;;5053542;28;20036;-80
2021/08/05 10:26:44;;;;;;;3.10;2.80;;;21.10;80.30;;;;;;5072863;28;20087;-79
2021/08/05 10:29:14;;;;;;;7.18;4.68;;;21.00;80.10;;;;;;5057554;28;20510;-79
2021/08/05 10:31:46;;;;;;;6.05;3.63;;;20.90;80.60;;;;;;5058184;28;20491;-79
2021/08/05 10:34:40;;;;;;;3.83;3.05;;;20.90;80.80;;;;;;5051567;28;20032;-79
2021/08/05 10:37:10;;;;;;;5.80;3.92;;;20.90;80.90;;;;;;5038721;28;20071;-78
2021/08/05 10:39:36;;;;;;;3.60;2.80;;;20.90;81.10;;;;;;5056846;28;20446;-79
2021/08/05 10:42:08;;;;;;;4.30;2.42;;;21.00;80.80;;;;;;5039658;28;20028;-79
2021/08/05 10:44:36;;;;;;;4.05;2.63;;;21.10;81.00;;;;;;5056023;28;20446;-79
2021/08/05 10:47:02;;;;;;;3.80;3.40;;;21.30;81.00;;;;;;5051950;28;20087;-79
2021/08/05 10:49:27;;;;;;;4.90;2.63;;;21.50;80.90;;;;;;5055286;28;20038;-79
2021/08/05 10:51:53;;;;;;;4.75;3.00;;;21.60;80.50;;;;;;5057008;28;20111;-79
2021/08/05 10:54:52;;;;;;;3.67;2.60;;;21.90;80.20;;;;;;5058670;28;20044;-79
2021/08/05 10:57:24;;;;;;;3.13;2.40;;;22.00;79.80;;;;;;5041837;28;20406;-79
2021/08/05 11:00:06;;;;;;;4.95;2.67;;;22.20;79.80;;;;;;5057925;28;20125;-78
2021/08/05 11:02:51;;;;;;;4.88;3.45;;;22.30;78.80;;;;;;5056405;28;20098;-78
2021/08/05 11:05:37;;;;;;;3.47;2.35;;;22.20;78.40;;;;;;5058342;28;20456;-79
2021/08/05 11:08:09;;;;;;;4.47;3.17;;;22.30;78.50;;;;;;5051482;28;20049;-79
2021/08/05 11:10:37;;;;;;;4.68;3.13;;;22.30;78.60;;;;;;5055402;28;20045;-78
2021/08/05 11:13:09;;;;;;;5.13;2.70;;;22.40;78.50;;;;;;5058139;28;20733;-79
2021/08/05 11:15:34;;;;;;;3.30;2.60;;;22.40;78.30;;;;;;5056363;28;20672;-79
2021/08/05 11:18:09;;;;;;;3.85;3.13;;;22.50;78.50;;;;;;5056492;28;20052;-78
2021/08/05 11:20:36;;;;;;;2.95;2.65;;;22.50;78.80;;;;;;5056860;28;20109;-80
2021/08/05 11:23:03;;;;;;;5.57;3.25;;;22.50;78.90;;;;;;5056542;28;20039;-79
2021/08/05 11:25:51;;;;;;;3.95;3.55;;;22.40;79.00;;;;;;5056522;28;20037;-80
2021/08/05 11:28:20;;;;;;;4.63;3.22;;;22.30;79.60;;;;;;5056584;28;20025;-78
2021/08/05 11:30:55;;;;;;;3.08;2.63;;;22.10;79.50;;;;;;5055107;28;20047;-80
2021/08/05 11:36:25;;;;;;;7.78;3.45;;;21.90;79.20;;;;;;5057735;28;20029;-79
2021/08/05 11:39:07;;;;;;;5.43;2.53;;;21.80;79.40;;;;;;5058081;28;20045;-79
2021/08/05 11:41:51;;;;;;;3.92;2.63;;;21.70;79.60;;;;;;5059408;28;20553;-78
2021/08/05 11:44:34;;;;;;;4.10;3.50;;;21.80;79.30;;;;;;5052559;28;20549;-80
2021/08/05 11:47:03;;;;;;;4.43;3.65;;;21.80;79.20;;;;;;5039780;28;20047;-79
2021/08/05 11:49:59;;;;;;;6.32;4.05;;;21.80;79.40;;;;;;5054996;28;20404;-80
2021/08/05 11:52:52;;;;;;;5.50;3.13;;;21.80;81.10;;;;;;5073559;28;20631;-79
2021/08/05 11:55:23;;;;;;;7.40;3.70;;;21.60;80.80;;;;;;5054781;28;20483;-78
2021/08/05 11:58:00;;;;;;;4.63;3.00;;;21.50;81.60;;;;;;5054694;28;20051;-74
2021/08/05 12:00:27;;;;;;;4.45;3.50;;;21.40;81.70;;;;;;5056064;28;20108;-74
2021/08/05 12:03:02;;;;;;;5.35;3.85;;;21.30;82.70;;;;;;5052648;28;20037;-74
2021/08/05 12:05:41;;;;;;;5.80;3.77;;;21.20;84.90;;;;;;5053665;28;20505;-75
2021/08/05 12:08:08;;;;;;;4.78;3.97;;;21.20;85.30;;;;;;5055041;28;20060;-74
2021/08/05 12:10:36;;;;;;;5.85;4.38;;;21.20;86.20;;;;;;5056090;28;20025;-74
2021/08/05 12:13:06;;;;;;;7.25;4.90;;;21.20;86.40;;;;;;5055929;28;20040;-74
2021/08/05 12:15:40;;;;;;;6.88;4.82;;;21.20;86.90;;;;;;5056523;28;20479;-75
2021/08/05 12:18:15;;;;;;;5.80;4.05;;;21.10;87.20;;;;;;5056311;28;20482;-74
2021/08/05 12:20:45;;;;;;;5.88;4.10;;;21.00;87.80;;;;;;5056457;28;20086;-74
2021/08/05 12:23:23;;;;;;;5.95;4.45;;;21.00;87.80;;;;;;5057307;28;20471;-74
2021/08/05 12:26:01;;;;;;;6.22;4.20;;;20.90;87.70;;;;;;5057738;28;20067;-74
2021/08/05 12:28:29;;;;;;;6.07;4.05;;;21.00;87.60;;;;;;5057070;28;20051;-74
2021/08/05 12:30:57;;;;;;;5.03;4.47;;;21.00;87.30;;;;;;5058203;28;20025;-74
2021/08/05 12:33:24;;;;;;;4.32;3.92;;;21.10;87.00;;;;;;5058098;28;20028;-75
2021/08/05 12:35:59;;;;;;;8.13;5.05;;;21.10;86.70;;;;;;5040216;28;20032;-74
2021/08/05 12:38:24;;;;;;;5.45;4.43;;;21.20;87.00;;;;;;5057295;28;20025;-75
2021/08/05 12:40:50;;;;;;;5.22;4.72;;;21.20;87.40;;;;;;5057251;28;20081;-75
2021/08/05 12:43:17;;;;;;;5.20;4.18;;;21.20;87.00;;;;;;5056909;28;20573;-75
2021/08/05 12:45:45;;;;;;;5.32;4.05;;;21.20;86.60;;;;;;5057429;28;20407;-74
2021/08/05 12:48:11;;;;;;;3.97;3.58;;;21.20;86.10;;;;;;5058062;28;20021;-74
2021/08/05 12:50:43;;;;;;;5.47;4.97;;;21.20;85.50;;;;;;5057975;28;20051;-74
2021/08/05 12:53:10;;;;;;;10.90;5.82;;;21.20;85.70;;;;;;5039922;28;20025;-74
2021/08/05 12:55:47;;;;;;;5.95;4.65;;;21.20;86.40;;;;;;5057692;28;20398;-74